Time;durP1;ratioP1;P1;durP2;ratioP2;P2;SDS_P1;SDS_P2;PMS_P1;PMS_P2;Temp;Humidity;BMP_temperature;BMP_pressure;BME280_temperature;BME280_humidity;BME280_pressure;Samples;Min_cycle;Max_cycle;Signal;HPM_P1;HPM_P2
2021/12/09 00:00:43;;;;;;;;;;;19.50;59.80;;;23.69;35.19;93064.00;6038012;19;19951;-71
2021/12/09 00:02:44;;;;;;;;;;;19.50;59.80;;;23.70;34.88;93076.44;6047200;19;19915;-70
2021/12/09 00:04:49;;;;;;;;;;;19.50;59.70;;;23.70;35.02;93065.56;6043629;19;19942;-70
2021/12/09 00:06:50;;;;;;;;;;;19.50;59.60;;;23.70;35.13;93069.06;6047257;19;19927;-69
2021/12/09 00:08:52;;;;;;;;;;;19.50;59.60;;;23.71;34.76;93072.56;6034068;19;19989;-70
2021/12/09 00:10:54;;;;;;;;;;;19.50;59.50;;;23.69;34.89;93064.00;6041221;19;19986;-71
2021/12/09 00:12:55;;;;;;;;;;;19.50;59.40;;;23.69;34.55;93055.84;6075273;19;19915;-71
2021/12/09 00:14:56;;;;;;;;;;;19.50;59.40;;;23.69;34.75;93058.56;6076796;19;20336;-70
2021/12/09 00:16:59;;;;;;;;;;;19.50;59.40;;;23.68;35.08;93048.84;6067571;19;19977;-70
2021/12/09 00:19:00;;;;;;;;;;;19.50;59.30;;;23.67;34.84;93045.34;6070775;19;20445;-70
2021/12/09 00:21:01;;;;;;;;;;;19.50;59.30;;;23.68;34.81;93049.63;6048465;19;19919;-70
2021/12/09 00:23:02;;;;;;;;;;;19.50;59.40;;;23.68;34.84;93051.56;6072036;19;19921;-69
2021/12/09 00:25:03;;;;;;;;;;;19.50;59.20;;;23.66;34.71;93049.22;6068372;19;19925;-70
2021/12/09 00:27:04;;;;;;;;;;;19.50;59.20;;;23.67;34.79;93064.38;6067131;19;20384;-70
2021/12/09 00:29:08;;;;;;;;;;;19.50;59.20;;;23.67;34.75;93055.44;6051993;19;19930;-69
2021/12/09 00:31:09;;;;;;;;;;;19.50;59.20;;;23.67;34.39;93066.31;6068581;19;20358;-71
2021/12/09 00:33:10;;;;;;;;;;;19.50;59.10;;;23.66;34.70;93073.72;6070704;19;19915;-70
2021/12/09 00:35:14;;;;;;;;;;;19.50;59.10;;;23.67;34.36;93077.22;6061606;19;19978;-70
2021/12/09 00:39:16;;;;;;;;;;;19.50;59.10;;;23.65;34.91;93061.28;6070772;19;19991;-71
2021/12/09 00:41:17;;;;;;;;;;;19.50;59.20;;;23.66;34.72;93071.00;6065023;19;19964;-70
2021/12/09 00:43:20;;;;;;;;;;;19.50;59.20;;;23.66;34.87;93071.00;6081265;19;19919;-70
2021/12/09 00:45:21;;;;;;;;;;;19.50;59.10;;;23.65;34.79;93072.16;6070141;19;19915;-70
2021/12/09 00:47:22;;;;;;;;;;;19.50;59.10;;;23.66;34.79;93067.50;6043172;19;20278;-70
2021/12/09 00:49:23;;;;;;;;;;;19.50;59.10;;;23.67;34.92;93071.75;6054227;19;19923;-70
2021/12/09 00:51:23;;;;;;;;;;;19.50;59.10;;;23.67;34.63;93069.03;6058693;19;19914;-70
2021/12/09 00:53:24;;;;;;;;;;;19.50;59.00;;;23.66;34.45;93071.00;6074807;19;19995;-70
2021/12/09 00:55:25;;;;;;;;;;;19.50;59.00;;;23.67;34.79;93078.00;6088435;19;19918;-70
2021/12/09 00:57:26;;;;;;;;;;;19.50;59.00;;;23.66;34.45;93068.25;6085053;19;19919;-70
2021/12/09 00:59:27;;;;;;;;;;;19.50;58.90;;;23.66;34.51;93073.72;6081160;19;20376;-70
2021/12/09 01:01:27;;;;;;;;;;;19.50;59.00;;;23.66;34.35;93072.94;6084282;19;19926;-70
2021/12/09 01:03:28;;;;;;;;;;;19.50;59.00;;;23.66;34.63;93075.66;6065564;19;19922;-70
2021/12/09 01:05:29;;;;;;;;;;;19.50;58.90;;;23.67;34.34;93080.72;6066887;19;20335;-69
2021/12/09 01:07:30;;;;;;;;;;;19.50;58.90;;;23.67;34.38;93072.53;6070053;19;19923;-68
2021/12/09 01:09:32;;;;;;;;;;;19.50;58.80;;;23.67;34.45;93058.16;6050166;19;20415;-69
2021/12/09 01:11:32;;;;;;;;;;;19.50;58.80;;;23.67;34.34;93067.09;6068937;19;19929;-66
2021/12/09 01:13:33;;;;;;;;;;;19.50;58.90;;;23.67;34.80;93067.09;6081525;19;20019;-68
2021/12/09 01:15:34;;;;;;;;;;;19.50;58.80;;;23.68;34.49;93059.72;6071973;19;19915;-68
2021/12/09 01:17:35;;;;;;;;;;;19.50;58.80;;;23.68;34.70;93057.00;6082099;19;21013;-66
2021/12/09 01:19:37;;;;;;;;;;;19.50;58.70;;;23.68;34.46;93059.72;6068923;19;19966;-67
2021/12/09 01:21:38;;;;;;;;;;;19.50;58.80;;;23.68;34.65;93057.78;6060406;19;21096;-68
2021/12/09 01:23:40;;;;;;;;;;;19.50;58.80;;;23.69;34.69;93058.56;6076896;19;19919;-68
2021/12/09 01:25:40;;;;;;;;;;;19.50;58.70;;;23.69;34.28;93062.06;6086044;19;20018;-69
2021/12/09 01:27:44;;;;;;;;;;;19.50;58.70;;;23.69;34.28;93072.94;6076287;19;20679;-70
2021/12/09 01:29:52;;;;;;;;;;;19.50;58.70;;;23.68;34.67;93070.59;6053937;19;20003;-68
2021/12/09 01:31:59;;;;;;;;;;;19.50;58.70;;;23.68;34.65;93074.09;6044638;19;20238;-68
2021/12/09 01:34:02;;;;;;;;;;;19.50;58.60;;;23.69;34.42;93081.09;6048707;19;19927;-67
2021/12/09 01:36:04;;;;;;;;;;;19.50;58.70;;;23.69;34.53;93091.97;6060095;19;19918;-67
2021/12/09 01:38:13;;;;;;;;;;;19.50;58.60;;;23.69;34.25;93096.66;6062667;19;19926;-68
2021/12/09 01:40:15;;;;;;;;;;;19.50;58.60;;;23.68;34.40;93100.53;6067755;19;20485;-67
2021/12/09 01:42:17;;;;;;;;;;;19.50;58.70;;;23.68;34.31;93098.59;6068225;19;20972;-67
2021/12/09 01:44:18;;;;;;;;;;;19.50;58.60;;;23.67;34.51;93102.47;6072091;19;20340;-68
2021/12/09 01:46:22;;;;;;;;;;;19.50;58.60;;;23.68;34.26;93108.69;6081187;19;19914;-67
2021/12/09 01:48:22;;;;;;;;;;;19.50;58.50;;;23.68;34.17;93108.69;6076430;19;19918;-66
2021/12/09 01:50:24;;;;;;;;;;;19.50;58.50;;;23.67;34.04;93110.63;6075176;19;19914;-67
2021/12/09 01:52:25;;;;;;;;;;;19.50;58.50;;;23.67;34.12;93115.28;6075033;19;19967;-66
2021/12/09 01:54:25;;;;;;;;;;;19.50;58.50;;;23.67;34.71;93109.84;6078440;19;20355;-67
2021/12/09 01:56:27;;;;;;;;;;;19.50;58.50;;;23.68;34.06;93114.13;6074328;19;20312;-67
2021/12/09 01:58:28;;;;;;;;;;;19.50;58.50;;;23.67;34.51;93118.00;6075611;19;20458;-67
2021/12/09 02:00:31;;;;;;;;;;;19.50;58.50;;;23.67;34.33;93115.28;6056324;19;20931;-67
2021/12/09 02:02:32;;;;;;;;;;;19.50;58.50;;;23.67;34.04;93128.91;6069878;19;19935;-66
2021/12/09 02:04:33;;;;;;;;;;;19.50;58.40;;;23.65;34.53;93123.84;6088152;19;19941;-66
2021/12/09 02:06:35;;;;;;;;;;;19.50;58.50;;;23.66;34.41;93122.69;6078713;19;19931;-67
2021/12/09 02:08:36;;;;;;;;;;;19.50;58.50;;;23.64;34.12;93125.00;6080171;19;20354;-67
2021/12/09 02:10:36;;;;;;;;;;;19.50;58.50;;;23.63;34.18;93115.28;6077903;19;19998;-67
2021/12/09 02:12:37;;;;;;;;;;;19.50;58.50;;;23.63;34.26;93126.16;6079754;19;19915;-67
2021/12/09 02:14:43;;;;;;;;;;;19.50;58.50;;;23.63;34.40;93130.81;6090079;19;20985;-67
2021/12/09 02:16:43;;;;;;;;;;;19.50;58.50;;;23.62;34.54;93121.09;6077778;19;19922;-68
2021/12/09 02:18:44;;;;;;;;;;;19.50;58.40;;;23.61;34.37;93123.00;6075621;19;19935;-67
2021/12/09 02:20:45;;;;;;;;;;;19.50;58.40;;;23.61;34.14;93131.16;6082193;19;19918;-66
2021/12/09 02:22:47;;;;;;;;;;;19.50;58.40;;;23.61;34.49;93124.94;6066768;19;19910;-67
2021/12/09 02:24:48;;;;;;;;;;;19.50;58.40;;;23.61;34.17;93127.66;6082939;19;20604;-67
2021/12/09 02:26:49;;;;;;;;;;;19.50;58.40;;;23.60;34.14;93126.09;6087939;19;20356;-67
2021/12/09 02:28:51;;;;;;;;;;;19.50;58.30;;;23.59;34.31;93119.88;6076532;19;19979;-67
2021/12/09 02:30:52;;;;;;;;;;;19.50;58.40;;;23.59;34.46;93109.00;6066100;19;19918;-68
2021/12/09 02:32:53;;;;;;;;;;;19.50;58.30;;;23.60;34.24;93116.00;6071329;19;19950;-68
2021/12/09 02:34:53;;;;;;;;;;;19.50;58.30;;;23.60;34.22;93110.56;6072954;19;20513;-67
2021/12/09 02:36:54;;;;;;;;;;;19.50;58.30;;;23.61;34.31;93103.19;6071824;19;20311;-68
2021/12/09 02:38:55;;;;;;;;;;;19.50;58.20;;;23.59;34.48;93089.97;6081006;19;19929;-66
2021/12/09 02:40:56;;;;;;;;;;;19.50;58.20;;;23.60;33.97;93088.03;6074330;19;19923;-66
2021/12/09 02:42:57;;;;;;;;;;;19.50;58.30;;;23.61;34.32;93095.03;6067389;19;19914;-68
2021/12/09 02:44:58;;;;;;;;;;;19.50;58.30;;;23.61;34.17;93103.97;6079748;19;19918;-66
2021/12/09 02:47:00;;;;;;;;;;;19.50;58.30;;;23.61;34.13;93109.41;6070202;19;19919;-67
2021/12/09 02:49:00;;;;;;;;;;;19.50;58.40;;;23.62;34.14;93115.66;6065650;19;19942;-67
2021/12/09 02:51:03;;;;;;;;;;;19.50;58.30;;;23.62;34.45;93132.75;6067065;19;20309;-68
2021/12/09 02:53:04;;;;;;;;;;;19.50;58.30;;;23.63;34.28;93142.47;6051586;19;19919;-68
2021/12/09 02:55:06;;;;;;;;;;;19.50;58.30;;;23.64;34.05;93151.41;6072018;19;19926;-66
2021/12/09 02:57:07;;;;;;;;;;;19.50;58.30;;;23.64;34.16;93154.91;6076853;19;19919;-67
2021/12/09 02:59:08;;;;;;;;;;;19.50;58.30;;;23.65;34.37;93144.81;6071465;19;19923;-67
2021/12/09 03:01:23;;;;;;;;;;;19.50;58.30;;;23.65;34.41;93145.59;6057200;19;19975;-71
2021/12/09 03:03:24;;;;;;;;;;;19.50;58.30;;;23.65;34.18;93148.31;6097109;19;19914;-66
2021/12/09 03:05:26;;;;;;;;;;;19.50;58.30;;;23.65;34.00;93148.31;6114826;19;19943;-66
2021/12/09 03:07:30;;;;;;;;;;;19.50;58.30;;;23.66;34.25;93151.81;6114762;19;19926;-66
2021/12/09 03:09:31;;;;;;;;;;;19.50;58.30;;;23.64;33.96;93146.75;6086989;19;19967;-67
2021/12/09 03:11:32;;;;;;;;;;;19.50;58.30;;;23.65;34.04;93144.81;6067709;19;19914;-67
2021/12/09 03:13:33;;;;;;;;;;;19.50;58.20;;;23.66;34.42;93141.72;6055461;19;21706;-67
2021/12/09 03:15:34;;;;;;;;;;;19.50;58.20;;;23.66;34.30;93139.00;6051410;19;20287;-67
2021/12/09 03:17:37;;;;;;;;;;;19.50;58.20;;;23.66;33.98;93146.38;6064887;19;19930;-66
2021/12/09 03:19:38;;;;;;;;;;;19.50;58.20;;;23.66;34.33;93155.31;6057223;19;19935;-67
2021/12/09 03:21:41;;;;;;;;;;;19.50;58.10;;;23.65;34.31;93159.19;6059958;19;20343;-67
2021/12/09 03:23:41;;;;;;;;;;;19.50;58.10;;;23.65;34.16;93167.34;6068879;19;19939;-67
2021/12/09 03:25:42;;;;;;;;;;;19.50;58.10;;;23.65;33.94;93175.53;6079035;19;20403;-67
2021/12/09 03:27:43;;;;;;;;;;;19.50;58.00;;;23.66;34.37;93163.47;6081952;19;20867;-67
2021/12/09 03:29:44;;;;;;;;;;;19.50;58.10;;;23.65;33.94;93161.13;6067820;19;19978;-66
2021/12/09 03:31:47;;;;;;;;;;;19.50;58.10;;;23.65;33.96;93161.13;6052053;19;20429;-67
2021/12/09 03:33:48;;;;;;;;;;;19.50;58.00;;;23.67;34.18;93159.59;6061623;19;20244;-67
2021/12/09 03:35:59;;;;;;;;;;;19.50;58.00;;;23.66;34.06;93159.97;6055377;19;20379;-67
2021/12/09 03:38:00;;;;;;;;;;;19.50;57.90;;;23.65;34.22;93163.84;6060034;19;19930;-67
2021/12/09 03:40:01;;;;;;;;;;;19.50;58.00;;;23.65;34.19;93161.13;6070356;19;20561;-67
2021/12/09 03:42:03;;;;;;;;;;;19.50;57.90;;;23.66;34.20;93171.63;6056804;19;20283;-67
2021/12/09 03:44:04;;;;;;;;;;;19.50;57.90;;;23.65;34.19;93166.59;6055016;19;19914;-67
2021/12/09 03:46:06;;;;;;;;;;;19.50;57.90;;;23.65;34.13;93178.25;6065305;19;19939;-67
2021/12/09 03:48:07;;;;;;;;;;;19.50;57.90;;;23.65;33.90;93183.69;6068299;19;20366;-66
2021/12/09 03:50:09;;;;;;;;;;;19.50;57.90;;;23.65;33.83;93182.91;6068429;19;19954;-67
2021/12/09 03:52:11;;;;;;;;;;;19.50;58.00;;;23.65;33.79;93182.91;6067301;19;19927;-67
2021/12/09 03:54:12;;;;;;;;;;;19.50;57.90;;;23.65;33.88;93170.09;6070777;19;20336;-67
2021/12/09 03:56:13;;;;;;;;;;;19.50;58.00;;;23.65;34.11;93167.34;6080518;19;20291;-67
2021/12/09 03:58:13;;;;;;;;;;;19.50;57.90;;;23.65;33.83;93163.84;6082401;19;20289;-66
2021/12/09 04:00:14;;;;;;;;;;;19.50;57.90;;;23.65;33.93;93172.81;6067374;19;20375;-66
2021/12/09 04:02:15;;;;;;;;;;;19.50;58.00;;;23.65;33.88;93177.47;6067040;19;20581;-66
2021/12/09 04:04:16;;;;;;;;;;;19.50;58.00;;;23.64;34.03;93184.84;6071078;19;19949;-67
2021/12/09 04:06:17;;;;;;;;;;;19.50;58.00;;;23.65;34.30;93189.13;6070127;19;20651;-67
2021/12/09 04:08:18;;;;;;;;;;;19.50;58.10;;;23.64;33.94;93189.50;6070099;19;19919;-67
2021/12/09 04:10:19;;;;;;;;;;;19.50;58.00;;;23.65;34.29;93185.63;6077314;19;19932;-67
2021/12/09 04:12:20;;;;;;;;;;;19.50;58.00;;;23.66;34.22;93190.69;6069974;19;26932;-67
2021/12/09 04:14:21;;;;;;;;;;;19.50;58.00;;;23.64;33.71;93179.41;6051873;19;20474;-69
2021/12/09 04:16:22;;;;;;;;;;;19.50;58.00;;;23.65;33.97;93172.81;6055555;19;19951;-70
2021/12/09 04:18:23;;;;;;;;;;;19.50;58.10;;;23.63;33.88;93161.53;6052912;19;20638;-70
2021/12/09 04:20:24;;;;;;;;;;;19.50;58.00;;;23.64;33.92;93159.56;6048998;19;19943;-70
2021/12/09 04:22:25;;;;;;;;;;;19.40;58.00;;;23.63;34.28;93163.47;6047498;19;19919;-70
2021/12/09 04:24:26;;;;;;;;;;;19.50;58.10;;;23.62;34.32;93165.41;6067911;19;20070;-69
2021/12/09 04:26:26;;;;;;;;;;;19.40;58.00;;;23.61;33.99;93171.19;6074868;19;20272;-70
2021/12/09 04:28:27;;;;;;;;;;;19.40;57.90;;;23.60;33.83;93177.78;6078680;19;19914;-70
2021/12/09 04:30:29;;;;;;;;;;;19.50;58.00;;;23.60;33.86;93183.22;6058763;19;19922;-70
2021/12/09 04:32:30;;;;;;;;;;;19.50;58.00;;;23.59;34.29;93184.38;6051845;19;19926;-70
2021/12/09 04:34:31;;;;;;;;;;;19.50;58.00;;;23.58;33.87;93183.63;6058156;19;20340;-70
2021/12/09 04:36:32;;;;;;;;;;;19.40;57.90;;;23.58;34.02;93182.84;6060116;19;20201;-70
2021/12/09 04:38:33;;;;;;;;;;;19.40;57.90;;;23.57;34.31;93195.66;6060533;19;19978;-69
2021/12/09 04:40:33;;;;;;;;;;;19.40;57.80;;;23.57;33.92;93195.66;6066995;19;20347;-70
2021/12/09 04:42:34;;;;;;;;;;;19.40;57.90;;;23.56;33.85;93196.03;6050608;19;19978;-71
2021/12/09 04:44:35;;;;;;;;;;;19.40;57.80;;;23.57;34.04;93206.53;6053351;19;19946;-69
2021/12/09 04:46:36;;;;;;;;;;;19.40;57.80;;;23.57;34.18;93208.47;6059572;19;19919;-69
2021/12/09 04:48:37;;;;;;;;;;;19.40;57.80;;;23.58;34.29;93208.09;6052997;19;19941;-69
2021/12/09 04:50:38;;;;;;;;;;;19.40;57.80;;;23.59;33.79;93206.16;6060775;19;19918;-70
2021/12/09 04:52:39;;;;;;;;;;;19.50;57.90;;;23.59;33.77;93203.44;6055140;19;20640;-69
2021/12/09 04:54:41;;;;;;;;;;;19.50;57.90;;;23.60;34.09;93202.28;6063265;19;19922;-70
2021/12/09 04:56:42;;;;;;;;;;;19.50;57.90;;;23.59;34.19;93212.38;6073621;19;19971;-70
2021/12/09 04:58:43;;;;;;;;;;;19.50;58.00;;;23.61;34.35;93210.06;6083996;19;19918;-70
2021/12/09 05:00:44;;;;;;;;;;;19.50;58.00;;;23.61;34.39;93210.06;6078812;19;19925;-70
2021/12/09 05:05:04;;;;;;;;;;;19.50;58.00;;;23.63;34.15;93224.09;6076806;19;19931;-70
2021/12/09 05:07:05;;;;;;;;;;;19.50;58.00;;;23.63;34.21;93218.66;6066770;19;19919;-70
2021/12/09 05:09:10;;;;;;;;;;;19.50;58.00;;;23.65;34.27;93216.31;6053457;19;20026;-71
2021/12/09 05:11:26;;;;;;;;;;;19.50;58.00;;;23.67;34.24;93219.44;6074896;19;19911;-70
2021/12/09 05:13:28;;;;;;;;;;;19.50;58.00;;;23.67;34.24;93235.78;6065595;19;21089;-70
2021/12/09 05:15:30;;;;;;;;;;;19.50;58.00;;;23.68;34.11;93233.84;6054000;19;20340;-70
2021/12/09 05:17:30;;;;;;;;;;;19.50;58.00;;;23.69;34.28;93244.34;6058700;19;20454;-70
2021/12/09 05:19:31;;;;;;;;;;;19.40;58.00;;;23.69;33.83;93254.44;6070692;19;19936;-70
2021/12/09 05:21:36;;;;;;;;;;;19.50;58.00;;;23.69;34.02;93265.31;6060205;19;19926;-70
2021/12/09 05:23:38;;;;;;;;;;;19.50;58.00;;;23.69;33.86;93271.53;6067275;19;19994;-70
2021/12/09 05:25:39;;;;;;;;;;;19.50;58.00;;;23.69;33.93;93268.03;6081257;19;21104;-70
2021/12/09 05:27:40;;;;;;;;;;;19.50;58.00;;;23.69;34.25;93274.25;6081793;19;19947;-70
2021/12/09 05:29:43;;;;;;;;;;;19.50;57.90;;;23.69;34.29;93270.75;6087727;19;19997;-70
2021/12/09 05:34:03;;;;;;;;;;;19.50;57.90;;;23.68;34.22;93278.16;6054252;19;19946;-70
2021/12/09 05:36:04;;;;;;;;;;;19.50;58.00;;;23.69;33.82;93281.66;6060097;19;19961;-69
2021/12/09 05:38:05;;;;;;;;;;;19.50;57.90;;;23.69;33.81;93281.66;6066727;19;19915;-70
2021/12/09 05:40:06;;;;;;;;;;;19.50;58.00;;;23.69;34.06;93282.44;6056337;19;19914;-69
2021/12/09 05:42:08;;;;;;;;;;;19.50;57.90;;;23.68;34.16;93285.53;6060974;19;19927;-69
2021/12/09 05:44:10;;;;;;;;;;;19.50;58.00;;;23.69;34.27;93284.38;6074171;19;19919;-69
2021/12/09 05:46:11;;;;;;;;;;;19.50;57.90;;;23.67;34.25;93292.91;6059476;19;19993;-69
2021/12/09 05:48:12;;;;;;;;;;;19.50;57.90;;;23.67;33.76;93297.56;6059166;19;20435;-69
2021/12/09 05:50:13;;;;;;;;;;;19.50;57.90;;;23.67;34.01;93295.63;6053715;19;19915;-70
2021/12/09 05:52:14;;;;;;;;;;;19.50;57.90;;;23.67;33.99;93297.56;6048105;19;19918;-70
2021/12/09 05:54:15;;;;;;;;;;;19.50;57.90;;;23.67;33.89;93297.56;6061744;19;20810;-70
2021/12/09 05:56:16;;;;;;;;;;;19.50;57.90;;;23.67;34.06;93300.28;6071143;19;19957;-70
2021/12/09 05:58:18;;;;;;;;;;;19.50;57.80;;;23.66;33.67;93293.28;6081061;19;19922;-70
2021/12/09 06:00:19;;;;;;;;;;;19.50;57.80;;;23.65;34.24;93300.66;6069659;19;19923;-70
2021/12/09 06:02:19;;;;;;;;;;;19.50;57.80;;;23.66;34.20;93296.00;6066238;19;19919;-70
2021/12/09 06:04:21;;;;;;;;;;;19.50;57.90;;;23.65;33.79;93297.94;6059459;19;19918;-70
2021/12/09 06:06:22;;;;;;;;;;;19.50;57.80;;;23.66;33.79;93301.44;6062038;19;19930;-69
2021/12/09 06:08:23;;;;;;;;;;;19.50;57.80;;;23.65;33.69;93303.38;6059463;19;19918;-70
2021/12/09 06:10:23;;;;;;;;;;;19.50;57.80;;;23.66;34.17;93293.28;6056964;19;20459;-70
2021/12/09 06:12:24;;;;;;;;;;;19.50;57.80;;;23.67;33.75;93300.28;6052100;19;19919;-70
2021/12/09 06:14:25;;;;;;;;;;;19.50;57.80;;;23.66;33.73;93309.59;6068634;19;19948;-69
2021/12/09 06:16:25;;;;;;;;;;;19.50;57.80;;;23.66;33.92;93306.88;6057438;19;21808;-70
2021/12/09 06:18:26;;;;;;;;;;;19.50;57.80;;;23.67;33.74;93316.59;6058538;19;19923;-70
2021/12/09 06:20:27;;;;;;;;;;;19.50;57.80;;;23.67;34.17;93316.59;6055540;19;20498;-70
2021/12/09 06:22:28;;;;;;;;;;;19.50;57.80;;;23.67;33.84;93313.88;6052712;19;19933;-70
2021/12/09 06:24:29;;;;;;;;;;;19.50;57.80;;;23.68;33.84;93323.63;6059888;19;19914;-70
2021/12/09 06:26:31;;;;;;;;;;;19.50;57.80;;;23.68;34.17;93318.94;6073298;19;20626;-72
2021/12/09 06:28:33;;;;;;;;;;;19.50;57.80;;;23.67;33.96;93320.13;6071483;19;19915;-70
2021/12/09 06:30:34;;;;;;;;;;;19.50;57.80;;;23.67;34.15;93322.06;6056260;19;19927;-70
2021/12/09 06:32:35;;;;;;;;;;;19.50;57.70;;;23.68;33.98;93312.72;6058674;19;19990;-70
2021/12/09 06:34:36;;;;;;;;;;;19.50;57.60;;;23.67;33.80;93320.13;6053053;19;19914;-70
2021/12/09 06:36:37;;;;;;;;;;;19.50;57.60;;;23.68;33.70;93318.16;6058349;19;19982;-71
2021/12/09 06:38:38;;;;;;;;;;;19.50;57.60;;;23.68;33.72;93318.16;6061425;19;20355;-70
2021/12/09 06:40:38;;;;;;;;;;;19.50;57.70;;;23.69;34.13;93314.28;6063401;19;19995;-70
2021/12/09 06:42:40;;;;;;;;;;;19.50;57.70;;;23.68;34.06;93310.78;6057242;19;19907;-70
2021/12/09 06:44:42;;;;;;;;;;;19.50;57.70;;;23.69;33.87;93303.41;6062451;19;20495;-68
2021/12/09 06:46:43;;;;;;;;;;;19.50;57.70;;;23.69;33.84;93308.84;6090461;19;21361;-71
2021/12/09 06:48:43;;;;;;;;;;;19.50;57.70;;;23.69;34.12;93308.84;6086648;19;19925;-75
2021/12/09 06:50:44;;;;;;;;;;;19.50;57.70;;;23.70;34.23;93304.97;6088645;19;19919;-68
2021/12/09 06:52:46;;;;;;;;;;;19.50;58.00;;;23.71;34.15;93310.03;6090726;19;19925;-72
2021/12/09 06:54:46;;;;;;;;;;;19.50;58.10;;;23.69;33.80;93309.63;6089089;19;19933;-68
2021/12/09 06:56:47;;;;;;;;;;;19.50;58.20;;;23.70;33.83;93316.63;6091997;19;19919;-68
2021/12/09 06:58:48;;;;;;;;;;;19.50;58.00;;;23.69;33.74;93323.25;6093346;19;19939;-74
2021/12/09 07:00:50;;;;;;;;;;;19.50;58.00;;;23.68;33.83;93324.41;6094302;19;20328;-71
2021/12/09 07:02:51;;;;;;;;;;;19.50;58.00;;;23.69;33.85;93330.63;6114228;19;20276;-68
2021/12/09 07:04:52;;;;;;;;;;;19.50;58.00;;;23.68;33.98;93334.50;6115159;19;19911;-67
2021/12/09 07:06:53;;;;;;;;;;;19.50;58.00;;;23.67;34.13;93332.94;6112865;19;20582;-71
2021/12/09 07:08:59;;;;;;;;;;;19.50;58.00;;;23.67;33.92;93341.88;6113321;19;20329;-74
2021/12/09 07:10:59;;;;;;;;;;;19.50;58.00;;;23.68;34.24;93342.66;6117327;19;19923;-70
2021/12/09 07:13:01;;;;;;;;;;;19.50;57.90;;;23.67;34.18;93341.88;6115283;19;19933;-68
2021/12/09 07:15:07;;;;;;;;;;;19.50;58.00;;;23.67;34.04;93336.44;6117052;19;20261;-70
2021/12/09 07:17:08;;;;;;;;;;;19.50;58.00;;;23.68;33.79;93337.22;6108600;19;19929;-72
2021/12/09 07:19:08;;;;;;;;;;;19.50;58.00;;;23.69;34.00;93344.22;6108768;19;19915;-69
2021/12/09 07:21:10;;;;;;;;;;;19.50;58.10;;;23.69;34.14;93342.28;6107081;19;20013;-68
2021/12/09 07:23:10;;;;;;;;;;;19.50;58.20;;;23.70;33.83;93345.78;6109733;19;20615;-68
2021/12/09 07:25:12;;;;;;;;;;;19.50;58.20;;;23.70;34.37;93337.63;6109513;19;19918;-68
2021/12/09 07:27:13;;;;;;;;;;;19.50;58.10;;;23.71;34.10;93341.91;6105511;19;19936;-73
2021/12/09 07:29:13;;;;;;;;;;;19.50;58.00;;;23.69;34.03;93339.56;6107427;19;20348;-68
2021/12/09 07:31:16;;;;;;;;;;;19.50;58.00;;;23.70;33.80;93349.28;6110399;19;19991;-69
2021/12/09 07:33:16;;;;;;;;;;;19.50;58.00;;;23.70;33.94;93348.50;6109842;19;20260;-70
2021/12/09 07:35:17;;;;;;;;;;;19.50;57.90;;;23.69;33.94;93352.38;6110297;19;19919;-68
2021/12/09 07:37:18;;;;;;;;;;;19.50;57.80;;;23.67;33.99;93354.69;6111153;19;19919;-68
2021/12/09 07:39:19;;;;;;;;;;;19.50;57.80;;;23.67;34.18;93360.91;6108353;19;20490;-73
2021/12/09 07:41:21;;;;;;;;;;;19.50;57.80;;;23.67;34.15;93365.56;6104316;19;19954;-72
2021/12/09 07:43:22;;;;;;;;;;;19.50;57.80;;;23.67;34.06;93369.09;6102204;19;19923;-71
2021/12/09 07:45:23;;;;;;;;;;;19.50;57.80;;;23.67;33.73;93366.34;6108223;19;19921;-68
2021/12/09 07:47:24;;;;;;;;;;;19.50;57.70;;;23.65;34.07;93360.50;6109822;19;19974;-71
2021/12/09 07:49:25;;;;;;;;;;;19.50;57.80;;;23.65;34.10;93354.28;6108706;19;19911;-70
2021/12/09 07:51:26;;;;;;;;;;;19.50;57.70;;;23.64;33.96;93356.22;6103099;19;19933;-74
2021/12/09 07:53:27;;;;;;;;;;;19.50;57.60;;;23.66;33.61;93364.03;6107447;19;19923;-69
2021/12/09 07:55:28;;;;;;;;;;;19.50;57.60;;;23.65;33.62;93365.19;6105698;19;19938;-69
2021/12/09 07:57:31;;;;;;;;;;;19.50;57.60;;;23.66;33.87;93374.91;6102439;19;20387;-67
2021/12/09 07:59:31;;;;;;;;;;;19.50;57.70;;;23.65;33.72;93393.16;6104487;19;20380;-73
2021/12/09 08:01:32;;;;;;;;;;;19.50;57.60;;;23.65;33.67;93395.88;6101979;19;19915;-69
2021/12/09 08:03:33;;;;;;;;;;;19.50;57.60;;;23.65;33.71;93395.88;6102301;19;19922;-71
2021/12/09 08:05:36;;;;;;;;;;;19.50;57.60;;;23.65;33.82;93400.53;6103587;19;20256;-67
2021/12/09 08:07:37;;;;;;;;;;;19.50;57.60;;;23.65;34.06;93404.03;6102152;19;19976;-74
2021/12/09 08:09:38;;;;;;;;;;;19.50;57.50;;;23.65;33.96;93406.75;6100003;19;19919;-70
2021/12/09 08:11:40;;;;;;;;;;;19.50;57.50;;;23.67;33.76;93412.63;6103079;19;20746;-65
2021/12/09 08:13:41;;;;;;;;;;;19.50;57.60;;;23.67;33.74;93411.84;6111118;19;19926;-65
2021/12/09 08:15:48;;;;;;;;;;;19.50;57.50;;;23.67;33.75;93409.88;6110564;19;20041;-65
2021/12/09 08:18:25;;;;;;;;;;;19.50;57.50;;;23.68;33.94;93414.19;6113532;19;20209;-65
2021/12/09 08:20:15;;;;;;;;;;;19.60;57.60;;;23.69;34.16;93429.34;6110012;19;20332;-65
2021/12/09 08:22:15;;;;;;;;;;;19.50;57.50;;;23.70;33.99;93424.69;6105634;19;19954;-65
2021/12/09 08:24:16;;;;;;;;;;;19.50;57.50;;;23.69;34.10;93429.34;6110846;19;19914;-65
2021/12/09 08:26:18;;;;;;;;;;;19.50;57.50;;;23.70;33.80;93430.13;6111968;19;19923;-65
2021/12/09 08:28:19;;;;;;;;;;;19.50;57.40;;;23.70;34.07;93422.75;6111609;19;19922;-65
2021/12/09 08:30:23;;;;;;;;;;;19.60;57.50;;;23.71;34.02;93428.97;6110090;19;19927;-65
2021/12/09 08:32:23;;;;;;;;;;;19.60;57.50;;;23.71;33.93;93432.47;6113720;19;19922;-64
2021/12/09 08:34:24;;;;;;;;;;;19.50;57.40;;;23.72;33.64;93427.81;6114058;19;20340;-65
2021/12/09 08:36:25;;;;;;;;;;;19.60;57.50;;;23.72;33.80;93428.59;6118927;19;19923;-65
2021/12/09 08:38:26;;;;;;;;;;;19.60;57.50;;;23.72;33.57;93434.03;6115494;19;19966;-65
2021/12/09 08:40:26;;;;;;;;;;;19.60;57.50;;;23.72;33.70;93427.81;6106408;19;19943;-65
2021/12/09 08:42:27;;;;;;;;;;;19.60;57.50;;;23.72;33.74;93427.81;6112657;19;20296;-65
2021/12/09 08:44:28;;;;;;;;;;;19.50;57.30;;;23.73;33.83;93435.59;6115024;19;20012;-65
2021/12/09 08:46:28;;;;;;;;;;;19.60;57.50;;;23.73;33.54;93438.31;6116502;19;19915;-65
2021/12/09 08:48:29;;;;;;;;;;;19.60;57.40;;;23.73;33.61;93440.25;6116183;19;19938;-65
2021/12/09 08:50:33;;;;;;;;;;;19.50;57.30;;;23.73;33.55;93440.25;6107357;19;19923;-65
2021/12/09 08:52:34;;;;;;;;;;;19.60;57.40;;;23.73;33.71;93441.03;6113174;19;19923;-65
2021/12/09 08:54:35;;;;;;;;;;;19.60;57.40;;;23.74;33.60;93444.53;6117727;19;19915;-65
2021/12/09 08:56:37;;;;;;;;;;;19.60;57.40;;;23.73;33.58;93451.16;6114571;19;19923;-65
2021/12/09 08:58:37;;;;;;;;;;;19.60;57.40;;;23.73;33.81;93442.97;6115167;19;19955;-66
2021/12/09 09:00:39;;;;;;;;;;;19.60;57.40;;;23.72;33.56;93447.63;6113770;19;19986;-65
2021/12/09 09:02:42;;;;;;;;;;;19.60;57.40;;;23.73;33.52;93459.31;6117016;19;20019;-65
2021/12/09 09:04:42;;;;;;;;;;;19.60;57.30;;;23.72;33.52;93455.03;6114595;19;20033;-65
2021/12/09 09:06:54;;;;;;;;;;;19.60;57.40;;;23.72;33.57;93463.19;6117511;19;20284;-65
2021/12/09 09:08:58;;;;;;;;;;;19.60;57.30;;;23.72;33.53;93468.63;6114321;19;19922;-65
2021/12/09 09:10:58;;;;;;;;;;;19.60;57.30;;;23.72;33.73;93465.91;6114314;19;19922;-65
2021/12/09 09:12:59;;;;;;;;;;;19.60;57.30;;;23.72;33.81;93471.34;6114654;19;20380;-65
2021/12/09 09:15:01;;;;;;;;;;;19.60;57.30;;;23.72;33.69;93479.50;6118052;19;19947;-65
2021/12/09 09:17:02;;;;;;;;;;;19.60;57.30;;;23.72;33.35;93482.22;6118349;19;20347;-64
2021/12/09 09:19:02;;;;;;;;;;;19.60;57.30;;;23.71;33.82;93476.00;6114786;19;19951;-65
2021/12/09 09:21:03;;;;;;;;;;;19.60;57.30;;;23.72;33.95;93479.50;6115371;19;20314;-64
2021/12/09 09:23:04;;;;;;;;;;;19.60;57.40;;;23.71;33.46;93483.38;6110698;19;19926;-65
2021/12/09 09:25:07;;;;;;;;;;;19.60;57.30;;;23.71;33.60;93484.16;6114398;19;19927;-64